Time;durP1;ratioP1;P1;durP2;ratioP2;P2;SDS_P1;SDS_P2;PMS_P1;PMS_P2;Temp;Humidity;BMP_temperature;BMP_pressure;BME280_temperature;BME280_humidity;BME280_pressure;Samples;Min_cycle;Max_cycle;Signal;HPM_P1;HPM_P2
2021/09/15 00:01:37;;;;;;;6.95;3.78;;;19.00;86.30;;;;;;5098866;28;20085;-73
2021/09/15 00:04:05;;;;;;;7.68;4.35;;;18.90;86.50;;;;;;5097375;28;20359;-73
2021/09/15 00:06:37;;;;;;;7.60;4.22;;;18.90;86.50;;;;;;5099414;28;20047;-72
2021/09/15 00:09:05;;;;;;;5.80;3.22;;;18.80;86.60;;;;;;5099988;28;20071;-73
2021/09/15 00:11:38;;;;;;;6.65;3.78;;;18.90;86.70;;;;;;5100594;28;20050;-73
2021/09/15 00:14:05;;;;;;;6.47;2.67;;;18.90;86.90;;;;;;5101829;28;20063;-73
2021/09/15 00:16:35;;;;;;;5.32;3.35;;;18.80;87.00;;;;;;5102694;28;20116;-73
2021/09/15 00:19:03;;;;;;;7.28;3.33;;;18.80;87.00;;;;;;5102669;28;20107;-73
2021/09/15 00:21:31;;;;;;;7.45;3.10;;;18.80;87.00;;;;;;5101824;28;20064;-73
2021/09/15 00:24:00;;;;;;;7.03;3.13;;;18.80;86.90;;;;;;5100749;28;20067;-73
2021/09/15 00:26:32;;;;;;;6.45;3.28;;;18.70;87.20;;;;;;5100897;28;20130;-73
2021/09/15 00:28:59;;;;;;;6.03;3.30;;;18.70;87.20;;;;;;5101147;28;20082;-73
2021/09/15 00:31:26;;;;;;;5.72;2.92;;;18.60;87.30;;;;;;5100957;28;20044;-73
2021/09/15 00:33:53;;;;;;;7.05;3.35;;;18.60;87.30;;;;;;5101383;28;20093;-73
2021/09/15 00:36:20;;;;;;;6.07;3.15;;;18.60;87.30;;;;;;5098898;28;20079;-72
2021/09/15 00:38:47;;;;;;;7.82;3.15;;;18.60;87.50;;;;;;5093031;28;20089;-72
2021/09/15 00:41:15;;;;;;;7.50;3.17;;;18.70;87.40;;;;;;5099433;28;20123;-73
2021/09/15 00:44:02;;;;;;;6.45;3.50;;;18.60;87.40;;;;;;5096248;28;20127;-73
2021/09/15 00:46:32;;;;;;;7.10;3.90;;;18.60;87.50;;;;;;5095549;28;20343;-73
2021/09/15 00:48:59;;;;;;;8.38;3.45;;;18.60;87.40;;;;;;5084038;28;20227;-73
2021/09/15 00:51:28;;;;;;;5.90;3.30;;;18.60;87.30;;;;;;5079332;28;20071;-73
2021/09/15 00:53:57;;;;;;;6.15;3.42;;;18.60;87.20;;;;;;5095254;28;20078;-73
2021/09/15 00:56:27;;;;;;;6.18;3.55;;;18.60;87.10;;;;;;5092124;28;20143;-73
2021/09/15 00:58:55;;;;;;;7.80;3.38;;;18.50;87.60;;;;;;5091055;28;20398;-73
2021/09/15 01:01:23;;;;;;;9.20;3.38;;;18.40;87.70;;;;;;5069192;28;20354;-73
2021/09/15 01:03:51;;;;;;;7.25;3.33;;;18.40;87.90;;;;;;5089787;28;20101;-73
2021/09/15 01:06:18;;;;;;;6.65;3.55;;;18.40;88.00;;;;;;5094789;28;20094;-73
2021/09/15 01:08:48;;;;;;;8.17;3.63;;;18.30;88.10;;;;;;5111858;28;20054;-73
2021/09/15 01:11:19;;;;;;;5.93;3.28;;;18.30;88.20;;;;;;5091478;28;20700;-73
2021/09/15 01:13:56;;;;;;;5.72;3.17;;;18.20;88.20;;;;;;5091209;28;20047;-73
2021/09/15 01:16:58;;;;;;;6.43;2.94;;;18.20;88.20;;;;;;1983349;28;10150059;-73
2021/09/15 01:19:54;;;;;;;6.45;3.17;;;18.10;88.40;;;;;;4412447;27;10001338;-73
2021/09/15 01:22:41;;;;;;;6.38;3.15;;;18.10;88.80;;;;;;5124644;27;20043;-73
2021/09/15 01:25:28;;;;;;;5.85;3.03;;;18.10;88.80;;;;;;5131788;28;20046;-73
2021/09/15 01:28:16;;;;;;;6.55;3.30;;;18.00;88.70;;;;;;5110576;28;20047;-73
2021/09/15 01:30:47;;;;;;;8.18;3.33;;;18.00;88.80;;;;;;5115336;27;20133;-73
2021/09/15 01:33:16;;;;;;;6.40;3.17;;;17.90;89.00;;;;;;5112089;27;20051;-73
2021/09/15 01:35:44;;;;;;;6.85;3.17;;;17.90;89.00;;;;;;5114684;28;20052;-73
2021/09/15 01:38:14;;;;;;;;;;;17.90;89.10;;;;;;5114574;28;20083;-73
2021/09/15 01:40:43;;;;;;;;;;;18.00;88.90;;;;;;5122972;27;19908;-74
2021/09/15 01:43:10;;;;;;;6.15;3.25;;;18.00;89.00;;;;;;5111687;28;19966;-74
2021/09/15 01:45:37;;;;;;;8.27;3.38;;;18.00;88.90;;;;;;5110152;28;20390;-74
2021/09/15 01:48:10;;;;;;;7.63;3.95;;;17.90;88.80;;;;;;5106001;28;20279;-74
2021/09/15 01:50:37;;;;;;;6.45;3.50;;;17.90;88.90;;;;;;5114323;27;20108;-74
2021/09/15 01:53:04;;;;;;;5.88;3.65;;;17.90;88.80;;;;;;5130241;27;20096;-74
2021/09/15 01:55:33;;;;;;;7.68;3.78;;;17.80;88.90;;;;;;5109883;28;20047;-73
2021/09/15 01:58:21;;;;;;;7.20;3.92;;;17.70;89.00;;;;;;5084854;27;20057;-73
2021/09/15 02:01:06;;;;;;;8.73;3.60;;;17.70;89.50;;;;;;5107388;27;20122;-73
2021/09/15 02:04:07;;;;;;;;;;;17.60;89.80;;;;;;5103334;27;20107;-73
2021/09/15 02:07:00;;;;;;;6.38;3.47;;;17.60;89.80;;;;;;5086332;28;19932;-73
2021/09/15 02:09:58;;;;;;;12.13;3.85;;;17.50;89.80;;;;;;5110335;28;20067;-72
2021/09/15 02:12:28;;;;;;;6.15;3.85;;;17.50;90.10;;;;;;5100296;28;20402;-74
2021/09/15 02:14:55;;;;;;;6.97;3.95;;;17.50;90.00;;;;;;5104103;28;20139;-73
2021/09/15 02:17:23;;;;;;;8.20;3.70;;;17.40;90.10;;;;;;5118657;27;20040;-73
2021/09/15 02:19:53;;;;;;;7.22;3.50;;;17.40;90.20;;;;;;5100612;28;20107;-72
2021/09/15 02:22:39;;;;;;;7.72;3.38;;;17.40;90.10;;;;;;5103731;27;20055;-73
2021/09/15 02:25:20;;;;;;;6.55;2.92;;;17.30;90.30;;;;;;5122975;27;20316;-72
2021/09/15 02:27:58;;;;;;;6.10;3.05;;;17.20;90.10;;;;;;5111432;28;20043;-72
2021/09/15 02:30:43;;;;;;;6.07;3.28;;;17.20;90.10;;;;;;5101125;28;20058;-72
2021/09/15 02:33:19;;;;;;;5.68;3.38;;;17.20;90.00;;;;;;5110728;28;20508;-73
2021/09/15 02:35:57;;;;;;;6.72;3.70;;;17.10;90.00;;;;;;5103309;28;20227;-73
2021/09/15 02:38:44;;;;;;;6.47;3.35;;;17.10;90.00;;;;;;5116473;28;20366;-73
2021/09/15 02:41:49;;;;;;;5.50;3.05;;;17.20;89.80;;;;;;5004645;28;20050;-73
2021/09/15 02:44:30;;;;;;;5.53;3.17;;;17.20;89.80;;;;;;5002223;28;20062;-73
2021/09/15 02:47:13;;;;;;;6.13;3.50;;;17.20;89.70;;;;;;5071616;28;20070;-72
2021/09/15 02:50:03;;;;;;;8.75;3.60;;;17.20;89.70;;;;;;5107258;28;20280;-73
2021/09/15 02:52:53;;;;;;;6.78;3.40;;;17.10;89.80;;;;;;5074226;28;20481;-73
2021/09/15 02:55:34;;;;;;;7.55;3.88;;;17.10;89.90;;;;;;5103633;28;20040;-72
2021/09/15 02:58:20;;;;;;;7.03;3.55;;;17.00;90.20;;;;;;5108942;28;20048;-73
2021/09/15 03:00:54;;;;;;;7.60;3.65;;;17.10;90.50;;;;;;5099287;28;20043;-73
2021/09/15 03:03:39;;;;;;;7.55;3.50;;;17.10;90.60;;;;;;5102243;28;20047;-73
2021/09/15 03:06:15;;;;;;;5.93;3.10;;;17.00;90.70;;;;;;5107637;28;20115;-73
2021/09/15 03:09:05;;;;;;;6.30;3.63;;;17.10;90.80;;;;;;5097596;28;20127;-72
2021/09/15 03:11:33;;;;;;;8.82;3.92;;;17.10;90.80;;;;;;5116347;28;20247;-73
2021/09/15 03:14:00;;;;;;;6.07;3.90;;;17.10;90.80;;;;;;5106271;28;20051;-72
2021/09/15 03:16:32;;;;;;;;;;;17.10;90.70;;;;;;5105459;28;20043;-72
2021/09/15 03:19:04;;;;;;;6.85;3.85;;;17.10;90.70;;;;;;5114839;27;19937;-73
2021/09/15 03:21:35;;;;;;;7.10;4.43;;;17.10;90.60;;;;;;5108574;28;20184;-72
2021/09/15 03:24:03;;;;;;;7.63;4.00;;;17.00;90.70;;;;;;5103638;27;20066;-73
2021/09/15 03:26:30;;;;;;;7.25;4.03;;;17.00;90.60;;;;;;5103928;28;20086;-73
2021/09/15 03:28:57;;;;;;;7.13;4.03;;;16.90;90.70;;;;;;5109180;28;20043;-72
2021/09/15 03:31:24;;;;;;;6.28;3.30;;;16.90;90.60;;;;;;5107696;28;20167;-73
2021/09/15 03:33:52;;;;;;;8.60;3.42;;;16.90;90.20;;;;;;5113687;27;20059;-73
2021/09/15 03:36:20;;;;;;;7.03;3.45;;;16.80;90.50;;;;;;5112674;28;20362;-73
2021/09/15 03:38:47;;;;;;;6.40;3.40;;;16.80;90.50;;;;;;5122973;27;20051;-73
2021/09/15 03:41:14;;;;;;;5.65;3.35;;;16.80;90.40;;;;;;5108933;28;20130;-74
2021/09/15 03:43:42;;;;;;;11.73;4.05;;;16.70;90.60;;;;;;5122681;27;20168;-72
2021/09/15 03:46:10;;;;;;;9.57;3.42;;;16.80;90.40;;;;;;5109743;28;20051;-73
2021/09/15 03:48:38;;;;;;;5.75;3.15;;;16.80;90.40;;;;;;5104438;28;20056;-73
2021/09/15 03:51:07;;;;;;;9.88;3.83;;;16.70;90.10;;;;;;5108257;27;20054;-73
2021/09/15 03:53:34;;;;;;;9.65;4.15;;;16.80;90.20;;;;;;5112318;28;20051;-73
2021/09/15 03:56:02;;;;;;;7.53;3.80;;;16.80;90.20;;;;;;5107761;28;20051;-72
2021/09/15 03:58:35;;;;;;;8.93;3.67;;;16.90;89.90;;;;;;5119963;27;20049;-73
2021/09/15 04:01:02;;;;;;;7.20;4.25;;;16.90;89.70;;;;;;5100231;28;20051;-73
2021/09/15 04:03:32;;;;;;;7.50;3.25;;;16.90;89.50;;;;;;5099107;27;20435;-72
2021/09/15 04:05:59;;;;;;;6.22;3.13;;;17.00;89.50;;;;;;5102263;28;20058;-73
2021/09/15 04:08:28;;;;;;;5.70;3.25;;;17.00;89.40;;;;;;5107322;28;20067;-72
2021/09/15 04:10:55;;;;;;;6.28;3.10;;;17.00;89.10;;;;;;5100680;27;20071;-73
2021/09/15 04:13:22;;;;;;;6.75;3.20;;;17.10;89.20;;;;;;5100867;28;20364;-73
2021/09/15 04:15:49;;;;;;;4.95;3.00;;;17.10;89.00;;;;;;5100399;28;20058;-73
2021/09/15 04:18:16;;;;;;;5.65;3.03;;;17.10;88.80;;;;;;5110303;27;20047;-73
2021/09/15 04:20:44;;;;;;;8.60;3.20;;;17.20;88.80;;;;;;5106254;27;20115;-73
2021/09/15 04:23:16;;;;;;;4.63;2.75;;;17.20;89.00;;;;;;5103152;27;20352;-73
2021/09/15 04:31:22;;;;;;;7.00;3.08;;;17.10;89.40;;;;;;5107756;27;20047;-73
2021/09/15 04:33:49;;;;;;;7.32;3.47;;;17.10;89.50;;;;;;5107571;28;20096;-72
2021/09/15 04:36:17;;;;;;;7.05;3.00;;;17.10;89.50;;;;;;5109971;28;20047;-73
2021/09/15 04:38:45;;;;;;;8.68;3.33;;;17.20;89.30;;;;;;5127135;27;20047;-73
2021/09/15 04:41:15;;;;;;;5.50;3.40;;;17.20;89.40;;;;;;5107268;27;20129;-72
2021/09/15 04:43:44;;;;;;;;;;;17.20;89.20;;;;;;5110702;27;20123;-73
2021/09/15 04:46:12;;;;;;;5.80;3.17;;;17.20;89.10;;;;;;5109832;28;19923;-73
2021/09/15 04:48:39;;;;;;;5.70;2.97;;;17.20;89.30;;;;;;5111071;27;20055;-73
2021/09/15 04:51:07;;;;;;;5.38;3.38;;;17.10;89.50;;;;;;5110586;28;20089;-72
2021/09/15 04:53:34;;;;;;;7.72;2.97;;;17.10;89.30;;;;;;5109020;27;20047;-72
2021/09/15 04:56:03;;;;;;;6.00;2.85;;;17.20;89.30;;;;;;5124051;27;20363;-73
2021/09/15 04:58:32;;;;;;;6.15;2.80;;;17.20;89.10;;;;;;5112719;27;20043;-73
2021/09/15 05:01:00;;;;;;;5.65;3.17;;;17.30;88.90;;;;;;5123986;27;20058;-73
2021/09/15 05:03:30;;;;;;;5.45;2.95;;;17.30;88.80;;;;;;5102578;27;20057;-74
2021/09/15 05:05:57;;;;;;;5.70;3.08;;;17.30;88.80;;;;;;5111086;28;20072;-73
2021/09/15 05:08:26;;;;;;;7.40;3.03;;;17.20;88.90;;;;;;5111456;28;20110;-73
2021/09/15 05:10:53;;;;;;;5.88;3.08;;;17.20;88.90;;;;;;5109713;28;20452;-73
2021/09/15 05:13:24;;;;;;;6.93;3.90;;;17.30;88.90;;;;;;5110874;28;20339;-73
2021/09/15 05:15:53;;;;;;;6.22;3.15;;;17.20;89.00;;;;;;5102397;28;20046;-73
2021/09/15 05:18:20;;;;;;;7.50;2.80;;;17.20;89.10;;;;;;5108729;28;20104;-73
2021/09/15 05:20:48;;;;;;;6.35;3.38;;;17.20;89.00;;;;;;5102551;28;20063;-73
2021/09/15 05:23:15;;;;;;;5.20;2.95;;;17.40;89.00;;;;;;5124220;27;20047;-73
2021/09/15 05:25:43;;;;;;;7.78;4.10;;;17.40;88.90;;;;;;5104604;28;20115;-73
2021/09/15 05:28:13;;;;;;;7.00;3.95;;;17.40;89.00;;;;;;5130161;27;20051;-73
2021/09/15 05:30:41;;;;;;;7.93;3.60;;;17.40;89.10;;;;;;5108163;27;20039;-73
2021/09/15 05:33:12;;;;;;;9.00;3.63;;;17.40;89.10;;;;;;5107349;28;20366;-73
2021/09/15 05:35:39;;;;;;;8.68;3.83;;;17.40;89.10;;;;;;5103727;28;20306;-73
2021/09/15 05:38:07;;;;;;;10.77;6.05;;;17.40;89.20;;;;;;5120408;27;20036;-73
2021/09/15 05:40:42;;;;;;;12.52;5.90;;;17.50;88.80;;;;;;5122254;27;20103;-74
2021/09/15 05:43:11;;;;;;;9.90;5.78;;;17.60;88.60;;;;;;5105908;27;20354;-73
2021/09/15 05:45:39;;;;;;;9.40;5.10;;;17.60;88.50;;;;;;5104855;28;20287;-74
2021/09/15 05:48:07;;;;;;;7.65;4.93;;;17.60;88.50;;;;;;5109326;27;20062;-74
2021/09/15 05:50:36;;;;;;;9.15;4.53;;;17.70;88.50;;;;;;5108082;27;20366;-73
2021/09/15 05:53:03;;;;;;;7.15;4.22;;;17.80;88.20;;;;;;5105509;28;20078;-74
2021/09/15 05:55:30;;;;;;;6.30;3.45;;;17.90;87.60;;;;;;5105776;28;20347;-74
2021/09/15 05:57:58;;;;;;;8.90;3.15;;;17.90;87.60;;;;;;5104823;28;20071;-74
2021/09/15 06:00:25;;;;;;;7.72;3.83;;;18.00;87.50;;;;;;5105155;28;20327;-74
2021/09/15 06:02:55;;;;;;;7.45;4.13;;;18.00;87.20;;;;;;5110383;28;20281;-74
2021/09/15 06:05:43;;;;;;;6.20;3.05;;;18.00;87.30;;;;;;5094549;27;20039;-73
2021/09/15 06:08:11;;;;;;;10.82;4.28;;;18.00;87.10;;;;;;5100138;27;20094;-74
2021/09/15 06:10:38;;;;;;;6.20;3.72;;;18.00;87.00;;;;;;5102497;28;20063;-74
2021/09/15 06:13:05;;;;;;;6.45;3.60;;;18.10;87.00;;;;;;5106811;27;20055;-74
2021/09/15 06:15:33;;;;;;;5.15;3.17;;;18.00;87.20;;;;;;5104596;27;20326;-74
2021/09/15 06:18:00;;;;;;;6.68;3.15;;;18.20;87.10;;;;;;5108656;28;20097;-74
2021/09/15 06:20:30;;;;;;;9.07;3.38;;;18.20;86.80;;;;;;5103742;28;20065;-74
2021/09/15 06:23:19;;;;;;;7.45;3.58;;;18.20;86.50;;;;;;5102054;28;20073;-74
2021/09/15 06:25:50;;;;;;;6.78;3.55;;;18.20;86.50;;;;;;5107715;28;20055;-74
2021/09/15 06:28:18;;;;;;;7.63;4.25;;;18.20;86.70;;;;;;5105117;28;20106;-74
2021/09/15 06:30:47;;;;;;;9.75;3.58;;;18.20;86.90;;;;;;5106876;28;20443;-73
2021/09/15 06:33:15;;;;;;;5.30;3.50;;;18.20;86.90;;;;;;5106295;28;20092;-73
2021/09/15 06:35:42;;;;;;;5.28;3.10;;;18.40;86.50;;;;;;5109836;28;20123;-74
2021/09/15 06:38:11;;;;;;;8.40;3.60;;;18.40;85.90;;;;;;5110316;28;20043;-72
2021/09/15 06:40:40;;;;;;;7.55;3.65;;;18.50;85.90;;;;;;5103746;27;20110;-74
2021/09/15 06:43:08;;;;;;;6.05;3.40;;;18.40;85.80;;;;;;5108141;28;20061;-74
2021/09/15 06:45:35;;;;;;;6.53;3.45;;;18.40;86.30;;;;;;5105090;28;20071;-75
2021/09/15 06:48:02;;;;;;;6.05;3.78;;;18.50;86.20;;;;;;5112098;28;20108;-74
2021/09/15 06:50:29;;;;;;;6.95;3.40;;;18.60;86.00;;;;;;5112131;28;20043;-73
2021/09/15 06:52:56;;;;;;;7.90;3.85;;;18.60;85.90;;;;;;5115223;28;20045;-74
2021/09/15 06:55:24;;;;;;;5.25;3.17;;;18.60;85.80;;;;;;5116630;27;20061;-74
2021/09/15 06:57:54;;;;;;;8.85;3.35;;;18.60;85.80;;;;;;5115459;28;20096;-74
2021/09/15 07:00:21;;;;;;;7.97;3.27;;;18.60;85.70;;;;;;5107336;28;20272;-74
2021/09/15 07:02:48;;;;;;;6.75;3.90;;;18.60;85.80;;;;;;5113338;28;20465;-74
2021/09/15 07:05:16;;;;;;;8.07;3.90;;;18.70;85.60;;;;;;5109872;28;20051;-74
2021/09/15 07:07:43;;;;;;;8.18;4.45;;;18.70;85.80;;;;;;5110073;28;20032;-74
2021/09/15 07:10:11;;;;;;;5.95;3.17;;;18.80;85.60;;;;;;5111941;27;20114;-74
2021/09/15 07:12:39;;;;;;;8.13;3.90;;;18.80;85.60;;;;;;5105805;28;20039;-74
2021/09/15 07:15:10;;;;;;;9.90;3.90;;;18.80;85.80;;;;;;5111148;27;20085;-74
2021/09/15 07:17:37;;;;;;;5.53;3.78;;;18.80;86.00;;;;;;5102755;27;20373;-74
2021/09/15 07:20:04;;;;;;;6.63;3.15;;;18.80;85.90;;;;;;5110754;28;20054;-74
2021/09/15 07:22:31;;;;;;;7.32;3.58;;;18.90;86.30;;;;;;5108898;28;20298;-74
2021/09/15 07:24:59;;;;;;;15.88;5.10;;;18.90;86.00;;;;;;5110511;27;20073;-74
2021/09/15 07:27:26;;;;;;;6.50;3.72;;;18.90;86.50;;;;;;5113911;28;20071;-74
2021/09/15 07:29:53;;;;;;;7.55;4.05;;;18.80;86.40;;;;;;5110108;27;20101;-74
2021/09/15 07:32:23;;;;;;;5.32;3.03;;;18.70;86.40;;;;;;5107973;27;20043;-74
2021/09/15 07:34:50;;;;;;;6.43;3.70;;;18.70;86.90;;;;;;5106848;27;20054;-73
2021/09/15 07:37:18;;;;;;;8.30;4.22;;;18.40;87.30;;;;;;5114764;27;20077;-72
2021/09/15 07:39:45;;;;;;;8.70;4.32;;;18.30;88.00;;;;;;5110852;27;20040;-70
2021/09/15 07:42:12;;;;;;;13.13;3.95;;;18.20;88.50;;;;;;5117615;28;20050;-72
2021/09/15 07:44:39;;;;;;;9.57;4.55;;;18.20;89.20;;;;;;5115047;28;20108;-70
2021/09/15 07:47:06;;;;;;;6.53;4.25;;;18.10;89.40;;;;;;5117963;28;20053;-70
2021/09/15 07:49:35;;;;;;;10.63;4.57;;;18.10;89.70;;;;;;5116750;28;20282;-70
2021/09/15 07:52:02;;;;;;;9.30;4.32;;;18.00;90.20;;;;;;5116281;28;20052;-70
2021/09/15 07:54:29;;;;;;;12.77;4.40;;;18.00;90.50;;;;;;5118252;28;20066;-70
2021/09/15 07:56:56;;;;;;;8.23;4.20;;;17.90;91.30;;;;;;5110648;27;20067;-71
2021/09/15 07:59:23;;;;;;;8.55;4.85;;;17.90;91.80;;;;;;5112287;27;20404;-71
2021/09/15 08:01:50;;;;;;;7.28;3.95;;;18.00;92.50;;;;;;5106592;28;20052;-70
2021/09/15 08:04:17;;;;;;;10.40;4.63;;;18.00;92.60;;;;;;5118588;27;20067;-70
2021/09/15 08:06:45;;;;;;;10.02;4.80;;;18.00;92.60;;;;;;5120448;27;20056;-70
2021/09/15 08:09:12;;;;;;;8.13;4.20;;;18.10;92.80;;;;;;5120046;28;20092;-70
2021/09/15 08:11:39;;;;;;;9.48;4.25;;;18.20;93.00;;;;;;5110168;27;20032;-70
2021/09/15 08:14:06;;;;;;;9.13;4.68;;;18.20;92.60;;;;;;5120704;27;20389;-70
2021/09/15 08:16:34;;;;;;;7.78;4.40;;;18.30;92.30;;;;;;5122408;27;20040;-70
2021/09/15 08:19:02;;;;;;;9.00;4.30;;;18.30;91.90;;;;;;5121871;27;20043;-70
2021/09/15 08:21:29;;;;;;;7.50;4.15;;;18.40;91.90;;;;;;5119621;27;20047;-70
2021/09/15 08:23:59;;;;;;;7.10;4.00;;;18.40;91.90;;;;;;5116486;28;20047;-71
2021/09/15 08:26:26;;;;;;;9.40;4.80;;;18.50;92.00;;;;;;5115170;28;20047;-70
2021/09/15 08:28:53;;;;;;;8.65;4.43;;;18.50;91.90;;;;;;5116318;28;20243;-71
2021/09/15 08:31:20;;;;;;;6.90;4.25;;;18.60;91.80;;;;;;5112405;27;20101;-70
2021/09/15 08:33:47;;;;;;;8.27;4.75;;;18.60;91.50;;;;;;5118578;28;20047;-70
2021/09/15 08:36:14;;;;;;;9.10;5.05;;;18.60;91.40;;;;;;5116177;28;20054;-70
2021/09/15 08:38:41;;;;;;;9.02;4.68;;;18.80;91.00;;;;;;5121959;27;20485;-70
2021/09/15 08:41:10;;;;;;;7.97;4.30;;;18.90;90.90;;;;;;5121297;28;20225;-70
2021/09/15 08:43:37;;;;;;;11.10;4.57;;;19.00;90.90;;;;;;5117732;27;20132;-71
2021/09/15 08:46:06;;;;;;;10.80;4.75;;;19.20;90.90;;;;;;5120975;28;20044;-70
2021/09/15 08:48:39;;;;;;;10.30;4.55;;;19.30;90.80;;;;;;5121179;28;20046;-71
2021/09/15 08:51:07;;;;;;;8.57;4.97;;;19.60;90.50;;;;;;5120846;28;20052;-69
2021/09/15 08:53:35;;;;;;;8.57;4.22;;;19.40;90.30;;;;;;5113434;28;20122;-69
2021/09/15 08:56:02;;;;;;;10.95;5.63;;;19.40;90.40;;;;;;5115725;28;20050;-69
2021/09/15 08:58:30;;;;;;;8.13;3.90;;;19.40;90.60;;;;;;5116911;28;20042;-70
2021/09/15 09:01:08;;;;;;;11.07;5.13;;;19.60;90.20;;;;;;5118722;27;20293;-70
2021/09/15 09:03:36;;;;;;;6.93;4.30;;;19.80;90.10;;;;;;5120980;27;20043;-70
2021/09/15 09:06:09;;;;;;;8.85;5.22;;;20.00;90.30;;;;;;5112447;27;20048;-71
2021/09/15 09:08:39;;;;;;;10.02;4.75;;;20.20;89.20;;;;;;5117518;27;20070;-70
2021/09/15 09:11:07;;;;;;;8.05;5.13;;;20.40;88.50;;;;;;5119616;28;20055;-69
2021/09/15 09:13:45;;;;;;;9.20;4.93;;;20.60;88.60;;;;;;5116869;28;20051;-70
2021/09/15 09:16:12;;;;;;;7.13;4.18;;;20.50;87.40;;;;;;5117077;27;20048;-69
2021/09/15 09:19:01;;;;;;;8.90;4.40;;;20.60;87.80;;;;;;5118921;28;20054;-70
2021/09/15 09:21:33;;;;;;;7.47;4.60;;;20.80;86.90;;;;;;5119113;28;20120;-71
2021/09/15 09:24:02;;;;;;;10.40;4.30;;;21.10;87.20;;;;;;5117583;27;20078;-70
2021/09/15 09:26:51;;;;;;;6.93;4.20;;;21.50;85.10;;;;;;5116090;28;20461;-69
2021/09/15 09:29:23;;;;;;;11.38;4.78;;;21.70;84.40;;;;;;5117476;28;20124;-70
2021/09/15 09:32:01;;;;;;;9.40;5.38;;;21.90;84.30;;;;;;5117558;27;20058;-70
2021/09/15 09:34:39;;;;;;;9.43;4.97;;;22.00;83.20;;;;;;5120115;28;20071;-73
2021/09/15 09:37:09;;;;;;;8.70;4.43;;;22.20;82.70;;;;;;5118108;28;20253;-73
2021/09/15 09:39:38;;;;;;;8.10;4.70;;;22.60;82.30;;;;;;5117030;28;20051;-74
2021/09/15 09:42:30;;;;;;;6.72;4.20;;;22.70;82.70;;;;;;5121049;28;20070;-73
2021/09/15 09:45:15;;;;;;;6.50;3.63;;;23.00;82.00;;;;;;5118984;28;20047;-73
2021/09/15 09:47:43;;;;;;;9.25;4.00;;;22.90;81.00;;;;;;5111517;27;20078;-74
2021/09/15 09:50:12;;;;;;;8.73;3.78;;;22.90;80.20;;;;;;5115788;28;20105;-74
2021/09/15 09:52:52;;;;;;;7.88;3.75;;;23.00;80.20;;;;;;5111682;28;20039;-74
2021/09/15 09:55:21;;;;;;;12.02;3.90;;;22.90;80.50;;;;;;5113140;28;20510;-74
2021/09/15 09:57:51;;;;;;;7.13;3.78;;;22.70;80.80;;;;;;5110783;28;20043;-74
2021/09/15 10:00:21;;;;;;;6.13;3.70;;;22.50;81.00;;;;;;5109790;27;20073;-75
2021/09/15 10:02:48;;;;;;;;;;;22.20;81.80;;;;;;5114100;28;20200;-74
2021/09/15 10:05:16;;;;;;;7.38;3.75;;;22.30;82.60;;;;;;5108111;27;19923;-74
2021/09/15 10:07:43;;;;;;;6.85;3.70;;;22.20;82.40;;;;;;5121335;27;20222;-74
2021/09/15 10:10:12;;;;;;;6.68;3.95;;;22.00;83.70;;;;;;5110760;28;20094;-73
2021/09/15 10:12:40;;;;;;;6.73;4.13;;;22.00;83.80;;;;;;5113835;28;20039;-74
2021/09/15 10:15:09;;;;;;;6.22;3.55;;;22.40;82.80;;;;;;5114369;28;20043;-73
2021/09/15 10:17:48;;;;;;;7.80;3.60;;;22.60;81.40;;;;;;5116796;28;20112;-73
2021/09/15 10:20:16;;;;;;;7.13;3.80;;;22.10;83.30;;;;;;5113240;28;20055;-74
2021/09/15 10:22:47;;;;;;;6.47;3.70;;;22.20;83.10;;;;;;5113500;28;20096;-75
2021/09/15 10:25:15;;;;;;;6.95;3.45;;;22.10;83.20;;;;;;5115163;28;20051;-73
2021/09/15 10:28:01;;;;;;;8.50;3.72;;;21.90;84.40;;;;;;5112543;28;20078;-73
2021/09/15 10:30:45;;;;;;;7.70;4.22;;;22.10;83.60;;;;;;5113786;28;20039;-73
2021/09/15 10:33:51;;;;;;;8.10;4.90;;;22.40;84.60;;;;;;5112707;28;20043;-73
2021/09/15 10:36:40;;;;;;;8.77;4.80;;;22.60;83.30;;;;;;5103007;28;20051;-73
2021/09/15 10:39:09;;;;;;;9.77;4.20;;;22.60;82.60;;;;;;5112295;28;20053;-73
2021/09/15 10:41:43;;;;;;;6.47;4.18;;;22.60;83.70;;;;;;5110789;28;20139;-73
2021/09/15 10:44:11;;;;;;;6.80;4.05;;;22.70;81.60;;;;;;5112532;28;20465;-73
2021/09/15 10:46:39;;;;;;;6.80;4.20;;;22.60;82.50;;;;;;5110609;28;21433;-73
2021/09/15 10:49:42;;;;;;;6.70;4.25;;;22.20;83.50;;;;;;5110087;28;20116;-73
2021/09/15 10:52:30;;;;;;;10.18;4.00;;;22.10;84.60;;;;;;5109964;28;20110;-73
2021/09/15 10:54:59;;;;;;;8.35;3.72;;;22.20;84.80;;;;;;5112770;28;20048;-73
2021/09/15 10:57:34;;;;;;;7.38;4.10;;;22.30;84.10;;;;;;5109624;28;20055;-73
2021/09/15 11:00:05;;;;;;;5.93;3.53;;;22.60;83.90;;;;;;5110989;28;20040;-74
2021/09/15 11:02:34;;;;;;;8.32;4.00;;;22.50;83.50;;;;;;5116352;28;20063;-73
2021/09/15 11:05:42;;;;;;;6.93;3.97;;;22.60;83.10;;;;;;5116306;28;20101;-74
2021/09/15 11:08:21;;;;;;;6.05;3.63;;;22.40;83.30;;;;;;5109836;28;20044;-74
2021/09/15 11:10:48;;;;;;;7.22;4.20;;;22.50;84.30;;;;;;5118764;28;20051;-73
2021/09/15 11:13:16;;;;;;;5.93;3.53;;;22.40;83.80;;;;;;5118134;28;20044;-74
2021/09/15 11:15:45;;;;;;;5.75;3.42;;;22.50;83.90;;;;;;5117928;28;20063;-74
2021/09/15 11:18:20;;;;;;;6.88;3.08;;;22.40;83.80;;;;;;5118929;28;20111;-74
2021/09/15 11:20:53;;;;;;;7.78;4.00;;;22.30;84.40;;;;;;5116994;28;20069;-74
2021/09/15 11:23:24;;;;;;;7.75;3.50;;;22.40;84.20;;;;;;5119358;28;20058;-74
2021/09/15 11:25:53;;;;;;;7.03;4.03;;;22.10;83.70;;;;;;5116957;28;20256;-73
2021/09/15 11:28:23;;;;;;;5.95;3.47;;;22.00;84.40;;;;;;5114081;28;20124;-72
2021/09/15 11:31:01;;;;;;;5.45;3.03;;;21.80;85.30;;;;;;5115497;28;20127;-74
2021/09/15 11:33:29;;;;;;;5.82;2.85;;;21.80;85.10;;;;;;5114118;27;20047;-73
2021/09/15 11:35:58;;;;;;;6.93;3.50;;;21.70;85.40;;;;;;5109891;27;20059;-73
2021/09/15 11:38:28;;;;;;;4.43;2.77;;;21.80;85.60;;;;;;5111775;28;20031;-72
2021/09/15 11:41:05;;;;;;;6.72;2.75;;;21.70;84.30;;;;;;5114653;28;20052;-74
2021/09/15 11:43:32;;;;;;;6.75;2.90;;;21.70;84.80;;;;;;5114833;28;20043;-74
2021/09/15 11:45:59;;;;;;;4.57;2.72;;;21.60;85.20;;;;;;5120701;27;20048;-72
2021/09/15 11:48:27;;;;;;;7.22;2.53;;;21.50;85.50;;;;;;5122486;27;20246;-73
2021/09/15 11:50:55;;;;;;;6.63;3.10;;;21.40;86.60;;;;;;5117771;27;20105;-73
2021/09/15 11:53:23;;;;;;;7.57;2.55;;;21.20;87.70;;;;;;5114802;28;20176;-73
2021/09/15 11:55:59;;;;;;;8.73;3.33;;;21.10;86.90;;;;;;5120541;27;20055;-73
2021/09/15 11:58:27;;;;;;;4.75;2.70;;;21.50;86.70;;;;;;5116855;27;20056;-75
2021/09/15 12:00:55;;;;;;;4.15;2.10;;;22.00;85.10;;;;;;5116847;28;20108;-72
2021/09/15 12:03:27;;;;;;;5.15;2.08;;;22.40;83.50;;;;;;5124908;27;20158;-72
2021/09/15 12:05:55;;;;;;;7.43;1.98;;;22.90;81.20;;;;;;5121549;27;20066;-73
2021/09/15 12:08:22;;;;;;;4.50;2.10;;;23.60;80.00;;;;;;5121880;27;20047;-73
2021/09/15 12:10:53;;;;;;;4.75;1.80;;;24.30;78.00;;;;;;5116050;27;20339;-76
2021/09/15 12:13:29;;;;;;;3.38;1.65;;;23.80;78.60;;;;;;5108727;27;20042;-74
2021/09/15 12:15:56;;;;;;;4.05;2.15;;;23.30;78.50;;;;;;5134964;27;20051;-74
2021/09/15 12:18:38;;;;;;;4.47;2.20;;;23.30;79.50;;;;;;5118860;27;20048;-74
2021/09/15 12:24:38;;;;;;;4.22;1.83;;;23.90;78.50;;;;;;5105762;27;20032;-75
2021/09/15 12:27:15;;;;;;;3.08;1.80;;;23.60;79.10;;;;;;5116325;28;20150;-77
2021/09/15 12:29:44;;;;;;;5.45;1.83;;;23.50;79.60;;;;;;5122419;28;20066;-75
2021/09/15 12:32:11;;;;;;;2.90;1.75;;;23.20;79.60;;;;;;5108808;27;20055;-76
2021/09/15 12:34:44;;;;;;;3.22;2.03;;;23.40;78.60;;;;;;5121238;27;20131;-75
2021/09/15 12:37:15;;;;;;;7.35;1.55;;;23.80;76.70;;;;;;5120014;27;20055;-75
2021/09/15 12:39:50;;;;;;;3.78;1.20;;;24.80;76.40;;;;;;5116150;28;20150;-75
2021/09/15 12:42:18;;;;;;;7.00;1.75;;;25.10;74.70;;;;;;5120009;28;20043;-75
2021/09/15 12:44:59;;;;;;;3.75;1.30;;;25.00;72.50;;;;;;5119557;28;20107;-75
2021/09/15 12:47:34;;;;;;;2.47;1.30;;;25.50;70.90;;;;;;5121994;27;20132;-76
2021/09/15 12:50:05;;;;;;;3.33;1.40;;;26.00;68.90;;;;;;5135075;27;20052;-76
2021/09/15 12:52:32;;;;;;;5.60;1.50;;;25.90;69.20;;;;;;5120611;27;20048;-76
2021/09/15 12:55:00;;;;;;;2.30;1.13;;;25.20;71.20;;;;;;5120695;28;20050;-76
2021/09/15 12:57:32;;;;;;;4.00;1.23;;;24.70;72.20;;;;;;5118214;27;20039;-76
2021/09/15 13:00:22;;;;;;;2.63;1.30;;;24.00;74.30;;;;;;5120446;28;20065;-75
2021/09/15 13:02:54;;;;;;;5.03;1.50;;;23.80;75.80;;;;;;5118566;28;20444;-76
2021/09/15 13:05:22;;;;;;;2.72;1.10;;;23.60;76.70;;;;;;5112099;27;20055;-76
2021/09/15 13:07:49;;;;;;;3.63;1.40;;;23.30;77.00;;;;;;5112629;28;20074;-75
2021/09/15 13:10:16;;;;;;;5.32;1.23;;;23.00;78.00;;;;;;5113026;27;20305;-75
2021/09/15 13:12:43;;;;;;;3.95;1.13;;;23.00;78.60;;;;;;5116058;28;20079;-76
2021/09/15 13:15:11;;;;;;;1.85;1.23;;;23.10;77.50;;;;;;5112474;28;20039;-76
2021/09/15 13:17:40;;;;;;;3.63;1.13;;;22.90;78.20;;;;;;5116908;28;20234;-75
2021/09/15 13:20:10;;;;;;;2.60;1.35;;;22.70;77.50;;;;;;5118945;28;20048;-75